sensor_id;sensor_type;location;lat;lon;timestamp;pressure;altitude;pressure_sealevel;temperature
15062;BMP180;7630;50.306;8.566;2022-12-20T00:02:13;98133.00;;;8.20
15062;BMP180;7630;50.306;8.566;2022-12-20T00:06:15;98127.00;;;7.70
15062;BMP180;7630;50.306;8.566;2022-12-20T00:10:16;98113.00;;;7.80
15062;BMP180;7630;50.306;8.566;2022-12-20T00:14:17;98113.00;;;8.00
15062;BMP180;7630;50.306;8.566;2022-12-20T00:18:18;98113.00;;;8.00
15062;BMP180;7630;50.306;8.566;2022-12-20T00:22:19;98123.00;;;8.10
15062;BMP180;7630;50.306;8.566;2022-12-20T00:26:23;98122.00;;;7.70
15062;BMP180;7630;50.306;8.566;2022-12-20T00:30:26;98093.00;;;7.20
15062;BMP180;7630;50.306;8.566;2022-12-20T00:34:27;98104.00;;;7.00
15062;BMP180;7630;50.306;8.566;2022-12-20T00:38:29;98075.00;;;7.00
15062;BMP180;7630;50.306;8.566;2022-12-20T00:42:30;98074.00;;;7.60
15062;BMP180;7630;50.306;8.566;2022-12-20T00:46:31;98085.00;;;7.10
15062;BMP180;7630;50.306;8.566;2022-12-20T00:50:34;98082.00;;;7.50
15062;BMP180;7630;50.306;8.566;2022-12-20T00:54:35;98091.00;;;7.30
15062;BMP180;7630;50.306;8.566;2022-12-20T00:58:39;98083.00;;;7.20
15062;BMP180;7630;50.306;8.566;2022-12-20T01:02:40;98073.00;;;7.10
15062;BMP180;7630;50.306;8.566;2022-12-20T01:06:44;98074.00;;;7.70
15062;BMP180;7630;50.306;8.566;2022-12-20T01:10:46;98080.00;;;7.50
15062;BMP180;7630;50.306;8.566;2022-12-20T01:14:50;98089.00;;;7.30
15062;BMP180;7630;50.306;8.566;2022-12-20T01:18:54;98082.00;;;7.10
15062;BMP180;7630;50.306;8.566;2022-12-20T01:22:58;98090.00;;;6.80
15062;BMP180;7630;50.306;8.566;2022-12-20T01:26:59;98086.00;;;7.00
15062;BMP180;7630;50.306;8.566;2022-12-20T01:31:01;98094.00;;;6.80
15062;BMP180;7630;50.306;8.566;2022-12-20T01:35:04;98098.00;;;7.20
15062;BMP180;7630;50.306;8.566;2022-12-20T01:39:14;98097.00;;;6.70
15062;BMP180;7630;50.306;8.566;2022-12-20T01:43:16;98091.00;;;7.20
15062;BMP180;7630;50.306;8.566;2022-12-20T01:47:18;98092.00;;;7.00
15062;BMP180;7630;50.306;8.566;2022-12-20T01:51:20;98098.00;;;7.30
15062;BMP180;7630;50.306;8.566;2022-12-20T01:55:24;98077.00;;;7.00
15062;BMP180;7630;50.306;8.566;2022-12-20T01:59:27;98073.00;;;6.40
15062;BMP180;7630;50.306;8.566;2022-12-20T02:03:30;98081.00;;;6.80
15062;BMP180;7630;50.306;8.566;2022-12-20T02:07:34;98058.00;;;7.10
15062;BMP180;7630;50.306;8.566;2022-12-20T02:12:05;98054.00;;;7.40
15062;BMP180;7630;50.306;8.566;2022-12-20T02:16:02;98039.00;;;7.30
15062;BMP180;7630;50.306;8.566;2022-12-20T02:24:38;98018.00;;;7.80
15062;BMP180;7630;50.306;8.566;2022-12-20T02:29:01;98026.00;;;8.10
15062;BMP180;7630;50.306;8.566;2022-12-20T02:33:03;98017.00;;;8.10
15062;BMP180;7630;50.306;8.566;2022-12-20T02:37:06;98026.00;;;7.90
15062;BMP180;7630;50.306;8.566;2022-12-20T02:41:20;98026.00;;;7.80
15062;BMP180;7630;50.306;8.566;2022-12-20T02:45:25;98024.00;;;7.60
15062;BMP180;7630;50.306;8.566;2022-12-20T02:49:31;98006.00;;;7.20
15062;BMP180;7630;50.306;8.566;2022-12-20T02:53:34;98017.00;;;7.60
15062;BMP180;7630;50.306;8.566;2022-12-20T03:01:53;98014.00;;;7.80
15062;BMP180;7630;50.306;8.566;2022-12-20T03:06:00;98023.00;;;7.70
15062;BMP180;7630;50.306;8.566;2022-12-20T03:09:58;98026.00;;;8.10
15062;BMP180;7630;50.306;8.566;2022-12-20T03:13:59;98030.00;;;8.00
15062;BMP180;7630;50.306;8.566;2022-12-20T03:18:01;98035.00;;;8.20
15062;BMP180;7630;50.306;8.566;2022-12-20T03:22:02;98063.00;;;8.40
15062;BMP180;7630;50.306;8.566;2022-12-20T03:26:04;98050.00;;;8.40
15062;BMP180;7630;50.306;8.566;2022-12-20T03:30:06;98048.00;;;8.80
15062;BMP180;7630;50.306;8.566;2022-12-20T03:34:07;98048.00;;;8.80
15062;BMP180;7630;50.306;8.566;2022-12-20T03:38:08;98059.00;;;9.50
15062;BMP180;7630;50.306;8.566;2022-12-20T03:42:09;98039.00;;;9.80
15062;BMP180;7630;50.306;8.566;2022-12-20T03:46:10;98018.00;;;9.40
15062;BMP180;7630;50.306;8.566;2022-12-20T03:50:12;98003.00;;;9.00
15062;BMP180;7630;50.306;8.566;2022-12-20T03:54:13;97996.00;;;9.30
15062;BMP180;7630;50.306;8.566;2022-12-20T03:58:14;97999.00;;;8.70
15062;BMP180;7630;50.306;8.566;2022-12-20T04:02:15;98021.00;;;8.80
15062;BMP180;7630;50.306;8.566;2022-12-20T04:06:17;98029.00;;;8.90
15062;BMP180;7630;50.306;8.566;2022-12-20T04:10:19;98049.00;;;9.60
15062;BMP180;7630;50.306;8.566;2022-12-20T04:14:20;98049.00;;;9.40
15062;BMP180;7630;50.306;8.566;2022-12-20T04:18:21;98041.00;;;9.40
15062;BMP180;7630;50.306;8.566;2022-12-20T04:22:22;98015.00;;;10.20
15062;BMP180;7630;50.306;8.566;2022-12-20T04:26:23;98015.00;;;9.00
15062;BMP180;7630;50.306;8.566;2022-12-20T04:30:24;98007.00;;;9.00
15062;BMP180;7630;50.306;8.566;2022-12-20T04:34:25;98008.00;;;9.30
15062;BMP180;7630;50.306;8.566;2022-12-20T04:38:27;97995.00;;;8.90
15062;BMP180;7630;50.306;8.566;2022-12-20T04:42:28;97989.00;;;10.10
15062;BMP180;7630;50.306;8.566;2022-12-20T04:46:29;97986.00;;;9.90
15062;BMP180;7630;50.306;8.566;2022-12-20T04:50:30;97987.00;;;10.30
15062;BMP180;7630;50.306;8.566;2022-12-20T04:54:31;98004.00;;;9.60
15062;BMP180;7630;50.306;8.566;2022-12-20T04:58:32;97997.00;;;8.80
15062;BMP180;7630;50.306;8.566;2022-12-20T05:02:34;98000.00;;;9.20
15062;BMP180;7630;50.306;8.566;2022-12-20T05:06:37;98007.00;;;9.30
15062;BMP180;7630;50.306;8.566;2022-12-20T05:10:38;97991.00;;;9.80
15062;BMP180;7630;50.306;8.566;2022-12-20T05:14:39;97984.00;;;9.60
15062;BMP180;7630;50.306;8.566;2022-12-20T05:18:40;97989.00;;;10.30
15062;BMP180;7630;50.306;8.566;2022-12-20T05:22:43;97993.00;;;9.90
15062;BMP180;7630;50.306;8.566;2022-12-20T05:27:03;97987.00;;;9.40
15062;BMP180;7630;50.306;8.566;2022-12-20T05:31:04;97992.00;;;9.30
15062;BMP180;7630;50.306;8.566;2022-12-20T05:35:05;97984.00;;;9.30
15062;BMP180;7630;50.306;8.566;2022-12-20T05:39:07;97970.00;;;9.60
15062;BMP180;7630;50.306;8.566;2022-12-20T05:43:08;97967.00;;;10.30
15062;BMP180;7630;50.306;8.566;2022-12-20T05:47:09;97968.00;;;10.30
15062;BMP180;7630;50.306;8.566;2022-12-20T05:51:11;97963.00;;;10.20
15062;BMP180;7630;50.306;8.566;2022-12-20T05:55:12;97951.00;;;9.00
15062;BMP180;7630;50.306;8.566;2022-12-20T05:59:13;97938.00;;;9.20
15062;BMP180;7630;50.306;8.566;2022-12-20T06:03:14;97927.00;;;8.00
15062;BMP180;7630;50.306;8.566;2022-12-20T06:07:16;97939.00;;;7.90
15062;BMP180;7630;50.306;8.566;2022-12-20T06:11:18;97948.00;;;7.50
15062;BMP180;7630;50.306;8.566;2022-12-20T06:15:21;97939.00;;;8.00
15062;BMP180;7630;50.306;8.566;2022-12-20T06:19:22;97945.00;;;8.50
15062;BMP180;7630;50.306;8.566;2022-12-20T06:23:23;97944.00;;;9.70
15062;BMP180;7630;50.306;8.566;2022-12-20T06:27:24;97949.00;;;9.30
15062;BMP180;7630;50.306;8.566;2022-12-20T06:31:25;97932.00;;;8.10
15062;BMP180;7630;50.306;8.566;2022-12-20T06:35:28;97937.00;;;8.20
15062;BMP180;7630;50.306;8.566;2022-12-20T06:39:29;97950.00;;;7.90
15062;BMP180;7630;50.306;8.566;2022-12-20T06:43:30;97950.00;;;7.90
15062;BMP180;7630;50.306;8.566;2022-12-20T06:47:32;97937.00;;;8.50
15062;BMP180;7630;50.306;8.566;2022-12-20T06:51:33;97942.00;;;8.00
15062;BMP180;7630;50.306;8.566;2022-12-20T06:55:34;97954.00;;;8.50
15062;BMP180;7630;50.306;8.566;2022-12-20T06:59:35;97953.00;;;8.50
15062;BMP180;7630;50.306;8.566;2022-12-20T07:03:36;97947.00;;;8.40
15062;BMP180;7630;50.306;8.566;2022-12-20T07:07:37;97945.00;;;8.90
15062;BMP180;7630;50.306;8.566;2022-12-20T07:11:40;97943.00;;;8.50
15062;BMP180;7630;50.306;8.566;2022-12-20T07:15:43;97936.00;;;8.50
15062;BMP180;7630;50.306;8.566;2022-12-20T07:19:45;97934.00;;;8.70
15062;BMP180;7630;50.306;8.566;2022-12-20T07:23:48;97938.00;;;9.10
15062;BMP180;7630;50.306;8.566;2022-12-20T07:27:49;97936.00;;;9.00
15062;BMP180;7630;50.306;8.566;2022-12-20T07:31:50;97939.00;;;9.20
15062;BMP180;7630;50.306;8.566;2022-12-20T07:36:05;97924.00;;;8.90
15062;BMP180;7630;50.306;8.566;2022-12-20T07:40:08;97915.00;;;9.70
15062;BMP180;7630;50.306;8.566;2022-12-20T07:44:09;97919.00;;;9.50
15062;BMP180;7630;50.306;8.566;2022-12-20T07:48:12;97910.00;;;10.60
15062;BMP180;7630;50.306;8.566;2022-12-20T07:52:18;97902.00;;;9.90
15062;BMP180;7630;50.306;8.566;2022-12-20T07:56:21;97915.00;;;10.10
15062;BMP180;7630;50.306;8.566;2022-12-20T08:00:23;97905.00;;;10.10
15062;BMP180;7630;50.306;8.566;2022-12-20T08:04:25;97906.00;;;9.00
15062;BMP180;7630;50.306;8.566;2022-12-20T08:08:35;97802.00;;;8.90
15062;BMP180;7630;50.306;8.566;2022-12-20T08:12:39;97914.00;;;9.00
15062;BMP180;7630;50.306;8.566;2022-12-20T08:16:42;97904.00;;;8.70
15062;BMP180;7630;50.306;8.566;2022-12-20T08:20:43;97901.00;;;9.00
15062;BMP180;7630;50.306;8.566;2022-12-20T08:24:45;97902.00;;;8.80
15062;BMP180;7630;50.306;8.566;2022-12-20T08:28:46;97904.00;;;8.60
15062;BMP180;7630;50.306;8.566;2022-12-20T08:32:47;97903.00;;;8.50
15062;BMP180;7630;50.306;8.566;2022-12-20T08:36:49;97896.00;;;9.00
15062;BMP180;7630;50.306;8.566;2022-12-20T08:40:50;97885.00;;;8.60
15062;BMP180;7630;50.306;8.566;2022-12-20T08:44:51;97880.00;;;8.50
15062;BMP180;7630;50.306;8.566;2022-12-20T08:48:52;97882.00;;;9.00
15062;BMP180;7630;50.306;8.566;2022-12-20T08:52:53;97894.00;;;9.40
15062;BMP180;7630;50.306;8.566;2022-12-20T08:56:55;97894.00;;;9.20
15062;BMP180;7630;50.306;8.566;2022-12-20T09:00:59;97894.00;;;9.70
15062;BMP180;7630;50.306;8.566;2022-12-20T09:05:04;97882.00;;;9.70
15062;BMP180;7630;50.306;8.566;2022-12-20T09:09:06;97896.00;;;8.90
15062;BMP180;7630;50.306;8.566;2022-12-20T09:13:08;97891.00;;;9.20
15062;BMP180;7630;50.306;8.566;2022-12-20T09:17:10;97872.00;;;9.10
15062;BMP180;7630;50.306;8.566;2022-12-20T09:21:12;97879.00;;;9.70
15062;BMP180;7630;50.306;8.566;2022-12-20T09:25:14;97887.00;;;9.60
15062;BMP180;7630;50.306;8.566;2022-12-20T09:29:17;97892.00;;;10.10
15062;BMP180;7630;50.306;8.566;2022-12-20T09:33:19;97871.00;;;10.10
15062;BMP180;7630;50.306;8.566;2022-12-20T09:37:21;97875.00;;;10.30
15062;BMP180;7630;50.306;8.566;2022-12-20T09:41:38;97867.00;;;9.60
15062;BMP180;7630;50.306;8.566;2022-12-20T09:45:40;97875.00;;;9.80
15062;BMP180;7630;50.306;8.566;2022-12-20T09:49:45;97865.00;;;9.40
15062;BMP180;7630;50.306;8.566;2022-12-20T10:02:36;97848.00;;;9.80
15062;BMP180;7630;50.306;8.566;2022-12-20T10:11:47;97851.00;;;9.60
15062;BMP180;7630;50.306;8.566;2022-12-20T10:15:27;97861.00;;;9.50
15062;BMP180;7630;50.306;8.566;2022-12-20T10:27:53;97841.00;;;9.80
15062;BMP180;7630;50.306;8.566;2022-12-20T10:31:58;97844.00;;;10.60
15062;BMP180;7630;50.306;8.566;2022-12-20T10:36:21;97843.00;;;10.20
15062;BMP180;7630;50.306;8.566;2022-12-20T10:40:28;97817.00;;;9.20
15062;BMP180;7630;50.306;8.566;2022-12-20T10:44:31;97829.00;;;9.50
15062;BMP180;7630;50.306;8.566;2022-12-20T10:48:38;97830.00;;;9.20
15062;BMP180;7630;50.306;8.566;2022-12-20T10:52:43;97797.00;;;9.20
15062;BMP180;7630;50.306;8.566;2022-12-20T10:56:53;97789.00;;;8.00
15062;BMP180;7630;50.306;8.566;2022-12-20T11:00:49;97801.00;;;9.00
15062;BMP180;7630;50.306;8.566;2022-12-20T11:09:29;97783.00;;;9.10
15062;BMP180;7630;50.306;8.566;2022-12-20T11:13:31;97776.00;;;9.00
15062;BMP180;7630;50.306;8.566;2022-12-20T11:17:40;97782.00;;;9.60
15062;BMP180;7630;50.306;8.566;2022-12-20T11:30:30;97782.00;;;9.90
15062;BMP180;7630;50.306;8.566;2022-12-20T11:34:50;97773.00;;;9.90
15062;BMP180;7630;50.306;8.566;2022-12-20T11:39:02;97768.00;;;10.30
15062;BMP180;7630;50.306;8.566;2022-12-20T11:43:25;97770.00;;;9.90
15062;BMP180;7630;50.306;8.566;2022-12-20T11:55:46;97739.00;;;9.90
15062;BMP180;7630;50.306;8.566;2022-12-20T11:59:55;97735.00;;;10.40
15062;BMP180;7630;50.306;8.566;2022-12-20T12:08:17;97732.00;;;11.10
15062;BMP180;7630;50.306;8.566;2022-12-20T12:24:55;97726.00;;;9.90
15062;BMP180;7630;50.306;8.566;2022-12-20T12:28:59;97727.00;;;10.10
15062;BMP180;7630;50.306;8.566;2022-12-20T12:33:03;97723.00;;;10.30
15062;BMP180;7630;50.306;8.566;2022-12-20T12:45:57;97702.00;;;10.40
15062;BMP180;7630;50.306;8.566;2022-12-20T12:50:00;97699.00;;;10.10
15062;BMP180;7630;50.306;8.566;2022-12-20T12:54:36;97696.00;;;9.90
15062;BMP180;7630;50.306;8.566;2022-12-20T12:58:31;97685.00;;;10.30
15062;BMP180;7630;50.306;8.566;2022-12-20T13:02:48;97667.00;;;9.70
15062;BMP180;7630;50.306;8.566;2022-12-20T13:06:42;97686.00;;;9.80
15062;BMP180;7630;50.306;8.566;2022-12-20T13:14:53;97660.00;;;10.30
15062;BMP180;7630;50.306;8.566;2022-12-20T13:18:59;97665.00;;;10.10
15062;BMP180;7630;50.306;8.566;2022-12-20T13:31:28;97666.00;;;11.10
15062;BMP180;7630;50.306;8.566;2022-12-20T13:35:38;97672.00;;;10.70
15062;BMP180;7630;50.306;8.566;2022-12-20T13:39:35;97660.00;;;10.20
15062;BMP180;7630;50.306;8.566;2022-12-20T13:43:43;97660.00;;;9.60
15062;BMP180;7630;50.306;8.566;2022-12-20T13:47:51;97676.00;;;9.60
15062;BMP180;7630;50.306;8.566;2022-12-20T14:00:30;97674.00;;;10.50
15062;BMP180;7630;50.306;8.566;2022-12-20T14:04:43;97666.00;;;10.50
15062;BMP180;7630;50.306;8.566;2022-12-20T14:08:47;97663.00;;;10.70
15062;BMP180;7630;50.306;8.566;2022-12-20T14:12:50;97668.00;;;10.20
15062;BMP180;7630;50.306;8.566;2022-12-20T14:16:54;97655.00;;;10.30
15062;BMP180;7630;50.306;8.566;2022-12-20T14:20:58;97647.00;;;10.10
15062;BMP180;7630;50.306;8.566;2022-12-20T14:25:01;97645.00;;;11.10
15062;BMP180;7630;50.306;8.566;2022-12-20T14:29:08;97622.00;;;11.10
15062;BMP180;7630;50.306;8.566;2022-12-20T14:33:35;97625.00;;;11.50
15062;BMP180;7630;50.306;8.566;2022-12-20T14:37:38;97621.00;;;10.90
15062;BMP180;7630;50.306;8.566;2022-12-20T14:41:43;97628.00;;;11.00
15062;BMP180;7630;50.306;8.566;2022-12-20T14:45:44;97640.00;;;10.50
15062;BMP180;7630;50.306;8.566;2022-12-20T14:49:58;97641.00;;;10.70
15062;BMP180;7630;50.306;8.566;2022-12-20T14:53:57;97631.00;;;10.20
15062;BMP180;7630;50.306;8.566;2022-12-20T14:57:59;97640.00;;;10.60
15062;BMP180;7630;50.306;8.566;2022-12-20T15:15:14;97621.00;;;11.80
15062;BMP180;7630;50.306;8.566;2022-12-20T15:19:17;97609.00;;;11.40
15062;BMP180;7630;50.306;8.566;2022-12-20T15:23:19;97613.00;;;11.80
15062;BMP180;7630;50.306;8.566;2022-12-20T15:27:21;97603.00;;;11.60
15062;BMP180;7630;50.306;8.566;2022-12-20T15:31:25;97607.00;;;11.50
15062;BMP180;7630;50.306;8.566;2022-12-20T15:35:29;97589.00;;;10.90
15062;BMP180;7630;50.306;8.566;2022-12-20T15:39:31;97592.00;;;11.30
15062;BMP180;7630;50.306;8.566;2022-12-20T15:43:36;97578.00;;;11.40
15062;BMP180;7630;50.306;8.566;2022-12-20T15:47:39;97595.00;;;11.80
15062;BMP180;7630;50.306;8.566;2022-12-20T15:51:41;97609.00;;;11.20
15062;BMP180;7630;50.306;8.566;2022-12-20T15:55:44;97601.00;;;11.00
15062;BMP180;7630;50.306;8.566;2022-12-20T15:59:45;97601.00;;;9.70
15062;BMP180;7630;50.306;8.566;2022-12-20T16:03:48;97600.00;;;9.80
15062;BMP180;7630;50.306;8.566;2022-12-20T16:07:50;97604.00;;;10.50
15062;BMP180;7630;50.306;8.566;2022-12-20T16:11:51;97596.00;;;10.20
15062;BMP180;7630;50.306;8.566;2022-12-20T16:15:53;97584.00;;;10.60
15062;BMP180;7630;50.306;8.566;2022-12-20T16:19:54;97588.00;;;11.00
15062;BMP180;7630;50.306;8.566;2022-12-20T16:23:55;97598.00;;;11.10
15062;BMP180;7630;50.306;8.566;2022-12-20T16:27:56;97610.00;;;10.70
15062;BMP180;7630;50.306;8.566;2022-12-20T16:31:57;97599.00;;;10.30
15062;BMP180;7630;50.306;8.566;2022-12-20T16:35:58;97606.00;;;9.80
15062;BMP180;7630;50.306;8.566;2022-12-20T16:40:00;97603.00;;;10.50
15062;BMP180;7630;50.306;8.566;2022-12-20T16:44:02;97599.00;;;10.50
15062;BMP180;7630;50.306;8.566;2022-12-20T16:48:03;97600.00;;;10.20
15062;BMP180;7630;50.306;8.566;2022-12-20T16:52:04;97609.00;;;10.20
15062;BMP180;7630;50.306;8.566;2022-12-20T16:56:06;97599.00;;;10.50
15062;BMP180;7630;50.306;8.566;2022-12-20T17:00:14;97596.00;;;10.20
15062;BMP180;7630;50.306;8.566;2022-12-20T17:04:15;97610.00;;;10.50
15062;BMP180;7630;50.306;8.566;2022-12-20T17:08:17;97603.00;;;11.10
15062;BMP180;7630;50.306;8.566;2022-12-20T17:12:36;97602.00;;;10.60
15062;BMP180;7630;50.306;8.566;2022-12-20T17:16:37;97598.00;;;11.10
15062;BMP180;7630;50.306;8.566;2022-12-20T17:20:39;97591.00;;;10.70
15062;BMP180;7630;50.306;8.566;2022-12-20T17:24:41;97586.00;;;10.50
15062;BMP180;7630;50.306;8.566;2022-12-20T17:28:42;97573.00;;;11.00
15062;BMP180;7630;50.306;8.566;2022-12-20T17:32:44;97565.00;;;10.30
15062;BMP180;7630;50.306;8.566;2022-12-20T17:36:47;97581.00;;;10.60
15062;BMP180;7630;50.306;8.566;2022-12-20T17:40:48;97588.00;;;10.50
15062;BMP180;7630;50.306;8.566;2022-12-20T17:44:49;97577.00;;;10.20
15062;BMP180;7630;50.306;8.566;2022-12-20T17:48:51;97563.00;;;10.50
15062;BMP180;7630;50.306;8.566;2022-12-20T17:52:53;97553.00;;;9.60
15062;BMP180;7630;50.306;8.566;2022-12-20T17:56:54;97550.00;;;10.30
15062;BMP180;7630;50.306;8.566;2022-12-20T18:00:57;97556.00;;;10.90
15062;BMP180;7630;50.306;8.566;2022-12-20T18:04:59;97559.00;;;11.30
15062;BMP180;7630;50.306;8.566;2022-12-20T18:09:00;97547.00;;;10.10
15062;BMP180;7630;50.306;8.566;2022-12-20T18:13:01;97538.00;;;10.30
15062;BMP180;7630;50.306;8.566;2022-12-20T18:17:02;97524.00;;;8.70
15062;BMP180;7630;50.306;8.566;2022-12-20T18:21:06;97532.00;;;8.70
15062;BMP180;7630;50.306;8.566;2022-12-20T18:25:08;97528.00;;;9.20
15062;BMP180;7630;50.306;8.566;2022-12-20T18:29:10;97538.00;;;8.90
15062;BMP180;7630;50.306;8.566;2022-12-20T18:33:11;97540.00;;;9.50
15062;BMP180;7630;50.306;8.566;2022-12-20T18:37:13;97548.00;;;8.70
15062;BMP180;7630;50.306;8.566;2022-12-20T18:41:17;97550.00;;;9.80
15062;BMP180;7630;50.306;8.566;2022-12-20T18:45:19;97551.00;;;10.20
15062;BMP180;7630;50.306;8.566;2022-12-20T18:49:20;97538.00;;;10.40
15062;BMP180;7630;50.306;8.566;2022-12-20T18:53:22;97537.00;;;10.20
15062;BMP180;7630;50.306;8.566;2022-12-20T18:57:25;97545.00;;;10.50
15062;BMP180;7630;50.306;8.566;2022-12-20T19:01:29;97534.00;;;10.40
15062;BMP180;7630;50.306;8.566;2022-12-20T19:05:32;97540.00;;;9.90
15062;BMP180;7630;50.306;8.566;2022-12-20T19:09:33;97551.00;;;10.50
15062;BMP180;7630;50.306;8.566;2022-12-20T19:13:35;97549.00;;;10.40
15062;BMP180;7630;50.306;8.566;2022-12-20T19:17:36;97535.00;;;10.70
15062;BMP180;7630;50.306;8.566;2022-12-20T19:21:40;97533.00;;;11.10
15062;BMP180;7630;50.306;8.566;2022-12-20T19:25:41;97534.00;;;10.60
15062;BMP180;7630;50.306;8.566;2022-12-20T19:29:43;97533.00;;;10.60
15062;BMP180;7630;50.306;8.566;2022-12-20T19:33:46;97535.00;;;10.10
15062;BMP180;7630;50.306;8.566;2022-12-20T19:37:47;97523.00;;;9.20
15062;BMP180;7630;50.306;8.566;2022-12-20T19:41:49;97526.00;;;9.90
15062;BMP180;7630;50.306;8.566;2022-12-20T19:45:52;97518.00;;;9.30
15062;BMP180;7630;50.306;8.566;2022-12-20T19:49:55;97523.00;;;9.30
15062;BMP180;7630;50.306;8.566;2022-12-20T19:53:57;97527.00;;;9.50
15062;BMP180;7630;50.306;8.566;2022-12-20T19:57:59;97530.00;;;10.20
15062;BMP180;7630;50.306;8.566;2022-12-20T20:02:00;97533.00;;;10.00
15062;BMP180;7630;50.306;8.566;2022-12-20T20:06:03;97529.00;;;9.90
15062;BMP180;7630;50.306;8.566;2022-12-20T20:10:05;97531.00;;;10.50
15062;BMP180;7630;50.306;8.566;2022-12-20T20:14:07;97527.00;;;10.40
15062;BMP180;7630;50.306;8.566;2022-12-20T20:18:10;97533.00;;;10.40
15062;BMP180;7630;50.306;8.566;2022-12-20T20:22:13;97539.00;;;10.30
15062;BMP180;7630;50.306;8.566;2022-12-20T20:26:19;97533.00;;;10.80
15062;BMP180;7630;50.306;8.566;2022-12-20T20:30:21;97537.00;;;10.30
15062;BMP180;7630;50.306;8.566;2022-12-20T20:34:22;97527.00;;;9.10
15062;BMP180;7630;50.306;8.566;2022-12-20T20:38:24;97533.00;;;9.80
15062;BMP180;7630;50.306;8.566;2022-12-20T20:42:25;97528.00;;;9.80
15062;BMP180;7630;50.306;8.566;2022-12-20T20:46:27;97518.00;;;9.40
15062;BMP180;7630;50.306;8.566;2022-12-20T20:50:28;97525.00;;;10.00
15062;BMP180;7630;50.306;8.566;2022-12-20T20:54:31;97524.00;;;9.70
15062;BMP180;7630;50.306;8.566;2022-12-20T20:58:33;97520.00;;;9.20
15062;BMP180;7630;50.306;8.566;2022-12-20T21:02:35;97523.00;;;8.90
15062;BMP180;7630;50.306;8.566;2022-12-20T21:06:36;97521.00;;;9.30
15062;BMP180;7630;50.306;8.566;2022-12-20T21:10:41;97511.00;;;9.50
15062;BMP180;7630;50.306;8.566;2022-12-20T21:14:42;97515.00;;;9.40
15062;BMP180;7630;50.306;8.566;2022-12-20T21:22:53;97496.00;;;9.90
15062;BMP180;7630;50.306;8.566;2022-12-20T21:26:54;97510.00;;;10.20
15062;BMP180;7630;50.306;8.566;2022-12-20T21:31:04;97498.00;;;10.10
15062;BMP180;7630;50.306;8.566;2022-12-20T21:35:06;97496.00;;;10.50
15062;BMP180;7630;50.306;8.566;2022-12-20T21:39:14;97489.00;;;10.20
15062;BMP180;7630;50.306;8.566;2022-12-20T21:43:13;97485.00;;;10.20
15062;BMP180;7630;50.306;8.566;2022-12-20T21:47:14;97487.00;;;10.20
15062;BMP180;7630;50.306;8.566;2022-12-20T21:51:18;97474.00;;;10.30
15062;BMP180;7630;50.306;8.566;2022-12-20T21:55:19;97477.00;;;10.00
15062;BMP180;7630;50.306;8.566;2022-12-20T21:59:21;97470.00;;;9.70
15062;BMP180;7630;50.306;8.566;2022-12-20T22:03:23;97472.00;;;10.00
15062;BMP180;7630;50.306;8.566;2022-12-20T22:07:24;97460.00;;;10.10
15062;BMP180;7630;50.306;8.566;2022-12-20T22:11:26;97468.00;;;10.30
15062;BMP180;7630;50.306;8.566;2022-12-20T22:15:28;97454.00;;;10.30
15062;BMP180;7630;50.306;8.566;2022-12-20T22:19:30;97463.00;;;9.90
15062;BMP180;7630;50.306;8.566;2022-12-20T22:23:31;97460.00;;;10.00
15062;BMP180;7630;50.306;8.566;2022-12-20T22:27:33;97459.00;;;10.30
15062;BMP180;7630;50.306;8.566;2022-12-20T22:31:35;97456.00;;;10.20
15062;BMP180;7630;50.306;8.566;2022-12-20T22:35:36;97449.00;;;9.90
15062;BMP180;7630;50.306;8.566;2022-12-20T22:39:37;97454.00;;;10.10
15062;BMP180;7630;50.306;8.566;2022-12-20T22:43:39;97449.00;;;10.30
15062;BMP180;7630;50.306;8.566;2022-12-20T22:47:40;97450.00;;;9.50
15062;BMP180;7630;50.306;8.566;2022-12-20T22:51:42;97448.00;;;9.70
15062;BMP180;7630;50.306;8.566;2022-12-20T22:55:43;97452.00;;;10.20
15062;BMP180;7630;50.306;8.566;2022-12-20T22:59:44;97441.00;;;10.10
15062;BMP180;7630;50.306;8.566;2022-12-20T23:03:46;97440.00;;;10.40
15062;BMP180;7630;50.306;8.566;2022-12-20T23:07:47;97441.00;;;10.30
15062;BMP180;7630;50.306;8.566;2022-12-20T23:11:49;97443.00;;;10.50
15062;BMP180;7630;50.306;8.566;2022-12-20T23:16:10;97435.00;;;10.60
15062;BMP180;7630;50.306;8.566;2022-12-20T23:20:12;97437.00;;;10.00
15062;BMP180;7630;50.306;8.566;2022-12-20T23:24:31;97433.00;;;10.30
15062;BMP180;7630;50.306;8.566;2022-12-20T23:28:32;97427.00;;;10.20
15062;BMP180;7630;50.306;8.566;2022-12-20T23:32:34;97433.00;;;10.10
15062;BMP180;7630;50.306;8.566;2022-12-20T23:36:47;97432.00;;;10.10
15062;BMP180;7630;50.306;8.566;2022-12-20T23:40:48;97436.00;;;10.30
15062;BMP180;7630;50.306;8.566;2022-12-20T23:44:49;97424.00;;;9.50
15062;BMP180;7630;50.306;8.566;2022-12-20T23:48:51;97430.00;;;10.10
15062;BMP180;7630;50.306;8.566;2022-12-20T23:52:53;97416.00;;;9.90
15062;BMP180;7630;50.306;8.566;2022-12-20T23:56:54;97435.00;;;9.60
